METAR Data
IDs: Format: Raw Decoded Include TAF

Data at: 2144 UTC 26 May 2019

METAR for:KRYW (Lago Vista/Allen Arp, TX, US)
Text:KRYW 262135Z AUTO 15008G17KT 10SM SCT049 SCT055 31/19 A3001 RMK AO2 T03060191
Temperature: 30.6°C ( 87°F)
Dewpoint: 19.1°C ( 66°F) [RH = 50%]
Pressure (altimeter):30.01 inches Hg (1016.3 mb)
Winds:from the SSE (150 degrees) at 9 MPH (8 knots; 4.1 m/s) gusting to 20 MPH (17 knots; 8.7 m/s)
Visibility:10 or more sm (16+ km)
Ceiling:at least 12,000 feet AGL
Clouds: scattered clouds at 4900 feet AGL, scattered clouds at 5500 feet AGL
QC Flag:automated observation with no human augmentation